• Join FlightAware (Why Join?)
  • Login
  • US Flag 
09:55AM EDT


 

Airport Tracker/Info


-or-


 

Live Flight TrackerFlight Track Log ✈ N960DL ✈ 04-May-2013 ✈ KDFW - KATL

Flight Track Log - Related Links

Times and Time Zones

All times are in EDT time to prevent confusion due to time zone crossing. See the N960DL flight status page for this flight to view local times or setup timezone preferences in your user account.

Time Position Orientation Groundspeed Altitude Reporting Facility
EDT Latitude Longitude Course Direction KTS MPH feet Rate Location/Type
01:24PM 32.9167 -97.0333 90° East 155 178 1,500  Level Dallas / Fort Worth TRACON
01:27PM 32.6966 -96.7603 68° East  Level FlightAware Approximate
01:27PM 33.0142 -96.9253 43° Northeast 251 289 7,100  Level Fort Worth Center
01:28PM 32.7463 -96.6114 68° East  Level FlightAware Approximate
01:28PM 32.9906 -96.8239 105° East 270 311 9,400  Level Fort Worth Center
01:29PM 32.7997 -96.4644 65° Northeast  Level FlightAware Approximate
01:29PM 32.9631 -96.7178 107° East 316 364 10,800  Level Fort Worth Center
01:30PM 32.8500 -96.3171 90° East  Level FlightAware Approximate
01:30PM 32.9289 -96.5867 107° East 398 458 12,700  Level Fort Worth Center
01:31PM 32.8986 -96.4633 106° East 429 494 14,600 2,100 Climbing Fort Worth Center
01:32PM 32.8661 -96.3053 104° East 444 511 16,900 1,980 Climbing Fort Worth Center
01:33PM 32.8669 -96.1644 90° East 449 517 18,600 1,800 Climbing Fort Worth Center
01:34PM 32.8714 -95.9936 88° East 467 537 20,500 1,680 Climbing Fort Worth Center
01:35PM 32.8739 -95.8478 89° East 481 554 22,000 1,500 Climbing Fort Worth Center
01:36PM 32.8692 -95.6622 92° East 500 575 23,500 1,260 Climbing Fort Worth Center
01:37PM 32.8544 -95.5042 96° East 517 595 24,600 1,260 Climbing Fort Worth Center
01:38PM 32.8494 -95.3314 92° East 523 602 26,100 1,440 Climbing Fort Worth Center
01:39PM 32.8444 -95.1533 92° East 528 608 27,500 1,500 Climbing Fort Worth Center
01:40PM 32.8369 -94.9756 93° East 533 613 29,100 1,440 Climbing Fort Worth Center
01:41PM 32.8272 -94.8003 94° East 539 620 30,400 1,140 Climbing Fort Worth Center
01:42PM 32.8169 -94.6203 94° East 534 615 31,400 900 Climbing Fort Worth Center
01:43PM 32.8067 -94.4425 94° East 534 615 32,300 780 Climbing Fort Worth Center
01:44PM 32.7961 -94.2625 94° East 534 615 33,000 300 Climbing Fort Worth Center
01:45PM 32.7875 -94.0897 93° East 534 615 33,000  Level Fort Worth Center
01:46PM 32.7783 -93.9122 93° East 534 615 33,000  Level Fort Worth Center
01:47PM 32.7692 -93.7372 94° East 534 615 33,000  Level Fort Worth Center
01:48PM 32.7578 -93.5600 94° East 534 615 33,000  Level Fort Worth Center
01:49PM 32.7458 -93.3778 94° East 539 620 33,000  Level Fort Worth Center
01:50PM 32.7378 -93.2028 93° East 534 615 33,000  Level Fort Worth Center
01:51PM 32.7256 -93.0281 95° East 534 615 33,000  Level Fort Worth Center
01:52PM 32.7153 -92.8531 94° East 534 615 33,000  Level Fort Worth Center
01:53PM 32.7025 -92.6761 95° East 534 615 33,000  Level Fort Worth Center
01:54PM 32.6956 -92.4986 93° East 534 615 33,000  Level Fort Worth Center
01:56PM 32.6664 -92.0797 95° East 531 611 33,000  Level Memphis Center
01:57PM 32.6456 -91.9239 99° East 542 624 33,000  Level Memphis Center
01:58PM 32.6372 -91.7486 93° East 542 624 33,000  Level Memphis Center
01:59PM 32.6203 -91.5683 96° East 537 618 33,000  Level Memphis Center
02:00PM 32.6092 -91.3956 94° East 542 624 33,000  Level Memphis Center
02:01PM 32.5958 -91.2228 95° East 537 618 33,000  Level Memphis Center
02:02PM 32.5783 -91.0428 97° East 537 618 33,000  Level Memphis Center
02:03PM 32.5644 -90.8700 95° East 537 618 33,000  Level Memphis Center
02:04PM 32.5503 -90.6925 95° East 537 618 33,000  Level Memphis Center
02:05PM 32.5342 -90.4978 96° East 544 626 33,000  Level Memphis Center
02:06PM 32.5194 -90.3178 95° East 538 619 33,000  Level Memphis Center
02:07PM 32.5047 -90.1456 96° East 538 619 33,000  Level Memphis Center
02:08PM 32.4875 -89.9706 97° East 538 619 33,000  Level Memphis Center
02:09PM 32.4722 -89.7958 96° East 538 619 33,000  Level Memphis Center
02:10PM 32.4567 -89.6236 96° East 538 619 33,000  Level Memphis Center
02:11PM 32.4411 -89.4539 96° East 533 613 33,000  Level Memphis Center
02:12PM 32.4250 -89.2794 96° East 533 613 33,000  Level Memphis Center
02:13PM 32.4067 -89.1122 97° East 522 601 33,000  Level Memphis Center
02:14PM 32.3925 -88.9550 96° East 522 601 33,000  Level Memphis Center
02:15PM 32.3822 -88.7831 94° East 522 601 33,000  Level Memphis Center
02:18PM 32.4278 -88.3819 82° East 516 594 33,000  Level Atlanta Center
02:19PM 32.4483 -88.2108 82° East 523 602 33,000  Level Atlanta Center
02:20PM 32.4686 -88.0419 82° East 517 595 33,000 -660 Level Atlanta Center
02:21PM 32.4839 -87.8875 83° East 519 597 31,700 -1,680 Descending Atlanta Center
02:22PM 32.5019 -87.7108 83° East 524 603 29,700 -1,680 Descending Atlanta Center
02:23PM 32.5214 -87.5367 82° East 524 603 28,400 -1,260 Descending Atlanta Center
02:24PM 32.5389 -87.3650 83° East 524 603 27,200 -720 Descending Atlanta Center
02:25PM 32.5597 -87.1983 82° East 519 597 27,000 -120 Descending Atlanta Center
02:26PM 32.5828 -87.0314 81° East 519 597 27,000  Level Atlanta Center
02:27PM 32.6200 -86.8700 75° East 514 592 27,000  Level Atlanta Center
02:28PM 32.6697 -86.6939 71° East 514 592 27,000  Level Atlanta Center
02:29PM 32.7128 -86.5322 72° East 508 585 27,000  Level Atlanta Center
02:30PM 32.7558 -86.3681 73° East 508 585 27,000  Level Atlanta Center
02:31PM 32.7939 -86.2183 73° East 502 578 27,000 -300 Level Atlanta Center
02:32PM 32.8300 -86.0683 74° East 477 549 26,400 -1,200 Descending Atlanta Center
02:33PM 32.8675 -85.9283 72° East 451 519 24,600 -1,740 Descending Atlanta Center
02:34PM 32.9278 -85.8108 59° Northeast 416 479 23,000 -1,560 Descending Atlanta Center
02:35PM 33.0003 -85.7058 51° Northeast 411 473 21,500 -1,440 Descending Atlanta Center
02:36PM 33.0786 -85.6181 43° Northeast 399 459 20,200 -1,320 Descending Atlanta Center
02:37PM 33.1611 -85.5425 37° Northeast 377 434 18,900 -1,020 Descending Atlanta Center
02:38PM 33.2656 -85.5219 North 364 419 18,200 -1,080 Descending Atlanta Center
02:39PM 33.3311 -85.4511 42° Northeast 353 406 16,800 -1,500 Descending Atlanta Center
02:40PM 33.3303 -85.3417 90° East 292 336 15,300 -1,560 Descending Atlanta Center
02:41PM 33.3250 -85.2372 93° East 293 337 13,700 -1,260 Descending Atlanta Center
02:42PM 33.3261 -85.1328 89° East 304 350 12,800 -1,020 Descending Atlanta Center
02:43PM 33.3206 -85.0383 94° East 299 344 11,700 -1,140 Descending Atlanta Center
02:44PM 33.2961 -84.9558 109° East 274 315 10,600 -1,140 Descending Atlanta Center
02:45PM 33.2739 -84.8761 108° East 262 302 9,500 -1,560 Descending Atlanta Center
02:46PM 33.2889 -84.7917 78° East 227 261 7,500 -2,040 Descending Atlanta Center
02:47PM 33.3725 -84.7975 357° North 209 241 5,500 -1,560 Descending Atlanta Center
02:48PM 33.4667 -84.8167 350° North 277 319 4,100 -720 Descending Atlanta TRACON
02:49PM 33.5333 -84.8333 348° North 271 312 4,000 -60 Descending Atlanta TRACON
02:50PM 33.6000 -84.8667 337° Northwest 234 269 4,000 -180 Level Atlanta TRACON
02:51PM 33.6167 -84.8000 73° East 185 213 3,700 -480 Descending Atlanta TRACON
02:52PM 33.6167 -84.7500 90° East 193 222 3,100 -300 Descending Atlanta TRACON
02:53PM 33.6167 -84.6833 90° East 186 214 3,100  Level Atlanta TRACON
02:54PM 33.6167 -84.6167 90° East 183 211 3,100 -120 Level Atlanta TRACON
02:55PM 33.6167 -84.5500 90° East 184 212 2,900 -600 Descending Atlanta TRACON
02:56PM 33.6167 -84.5000 90° East 156 180 1,900 -1,020 Descending Atlanta TRACON